Terminal Aerodrome Forecast
Issued by NWS Upton, NY

Home | Current Version | Previous Version | Text Only | Print | Product List | Glossary On
Versions: 1 2 3 4 5 6 7 8 9 10 11 12 13 14 15 16 17 18 19 20 21 22 23 24 25 26 27 28
000
FTUS41 KOKX 020700 AAA
TAFISP
TAF AMD
KISP 020742Z 0208/0306 VRB03KT 6SM BR SCT006 SCT020 OVC035
      TEMPO 0208/0209 BKN020
     FM020900 27007KT P6SM SCT010 SCT025 BKN040
     FM021200 30010G16KT P6SM SCT025 BKN050
     FM021500 30017G25KT P6SM FEW050
     FM022300 30010KT P6SM SKC
     FM030400 31005KT P6SM SKC=

USA.gov is the U.S. government's official web portal to all federal, state and local government web resources and services.